sensor_id;sensor_type;location;lat;lon;timestamp;P1;durP1;ratioP1;P2;durP2;ratioP2
59504;SDS011;45321;53.200;5.814;2022-10-31T00:00:43;18.35;;;10.13;;
59504;SDS011;45321;53.200;5.814;2022-10-31T00:03:09;20.00;;;13.75;;
59504;SDS011;45321;53.200;5.814;2022-10-31T00:05:35;18.70;;;11.63;;
59504;SDS011;45321;53.200;5.814;2022-10-31T00:08:01;22.38;;;13.55;;
59504;SDS011;45321;53.200;5.814;2022-10-31T00:10:26;17.30;;;11.05;;
59504;SDS011;45321;53.200;5.814;2022-10-31T00:12:52;16.45;;;11.65;;
59504;SDS011;45321;53.200;5.814;2022-10-31T00:15:18;17.48;;;10.80;;
59504;SDS011;45321;53.200;5.814;2022-10-31T00:17:44;18.38;;;10.75;;
59504;SDS011;45321;53.200;5.814;2022-10-31T00:20:09;14.32;;;9.48;;
59504;SDS011;45321;53.200;5.814;2022-10-31T00:22:35;14.88;;;9.77;;
59504;SDS011;45321;53.200;5.814;2022-10-31T00:25:01;16.35;;;9.82;;
59504;SDS011;45321;53.200;5.814;2022-10-31T00:27:27;19.50;;;10.98;;
59504;SDS011;45321;53.200;5.814;2022-10-31T00:29:52;22.45;;;11.13;;
59504;SDS011;45321;53.200;5.814;2022-10-31T00:32:18;19.42;;;10.88;;
59504;SDS011;45321;53.200;5.814;2022-10-31T00:34:44;19.05;;;10.40;;
59504;SDS011;45321;53.200;5.814;2022-10-31T00:37:09;18.98;;;10.50;;
59504;SDS011;45321;53.200;5.814;2022-10-31T00:39:35;18.02;;;10.32;;
59504;SDS011;45321;53.200;5.814;2022-10-31T00:42:01;21.17;;;11.50;;
59504;SDS011;45321;53.200;5.814;2022-10-31T00:44:26;16.85;;;10.32;;
59504;SDS011;45321;53.200;5.814;2022-10-31T00:46:52;20.05;;;10.63;;
59504;SDS011;45321;53.200;5.814;2022-10-31T00:49:18;15.95;;;9.95;;
59504;SDS011;45321;53.200;5.814;2022-10-31T00:51:44;13.30;;;9.85;;
59504;SDS011;45321;53.200;5.814;2022-10-31T00:54:09;16.30;;;9.50;;
59504;SDS011;45321;53.200;5.814;2022-10-31T00:56:35;16.85;;;10.35;;
59504;SDS011;45321;53.200;5.814;2022-10-31T00:59:01;14.43;;;9.05;;
59504;SDS011;45321;53.200;5.814;2022-10-31T01:01:26;20.92;;;9.77;;
59504;SDS011;45321;53.200;5.814;2022-10-31T01:03:52;14.38;;;9.07;;
59504;SDS011;45321;53.200;5.814;2022-10-31T01:06:18;17.73;;;9.82;;
59504;SDS011;45321;53.200;5.814;2022-10-31T01:08:44;16.33;;;9.85;;
59504;SDS011;45321;53.200;5.814;2022-10-31T01:11:13;17.85;;;10.02;;
59504;SDS011;45321;53.200;5.814;2022-10-31T01:13:41;17.48;;;11.27;;
59504;SDS011;45321;53.200;5.814;2022-10-31T01:16:11;18.70;;;11.32;;
59504;SDS011;45321;53.200;5.814;2022-10-31T01:18:38;17.25;;;10.52;;
59504;SDS011;45321;53.200;5.814;2022-10-31T01:21:06;17.60;;;11.38;;
59504;SDS011;45321;53.200;5.814;2022-10-31T01:23:34;16.77;;;11.63;;
59504;SDS011;45321;53.200;5.814;2022-10-31T01:26:08;14.45;;;11.30;;
59504;SDS011;45321;53.200;5.814;2022-10-31T01:28:36;20.95;;;11.90;;
59504;SDS011;45321;53.200;5.814;2022-10-31T01:31:05;20.02;;;11.85;;
59504;SDS011;45321;53.200;5.814;2022-10-31T01:33:33;20.92;;;13.07;;
59504;SDS011;45321;53.200;5.814;2022-10-31T01:35:59;20.05;;;11.77;;
59504;SDS011;45321;53.200;5.814;2022-10-31T01:38:25;18.77;;;12.27;;
59504;SDS011;45321;53.200;5.814;2022-10-31T01:40:51;16.70;;;12.02;;
59504;SDS011;45321;53.200;5.814;2022-10-31T01:43:18;19.27;;;13.32;;
59504;SDS011;45321;53.200;5.814;2022-10-31T01:45:46;20.05;;;13.48;;
59504;SDS011;45321;53.200;5.814;2022-10-31T01:48:18;18.17;;;12.93;;
59504;SDS011;45321;53.200;5.814;2022-10-31T01:50:46;18.45;;;13.05;;
59504;SDS011;45321;53.200;5.814;2022-10-31T01:53:15;16.55;;;13.30;;
59504;SDS011;45321;53.200;5.814;2022-10-31T01:55:42;20.67;;;13.02;;
59504;SDS011;45321;53.200;5.814;2022-10-31T01:58:12;17.25;;;12.50;;
59504;SDS011;45321;53.200;5.814;2022-10-31T02:00:41;18.10;;;13.10;;
59504;SDS011;45321;53.200;5.814;2022-10-31T02:03:10;18.08;;;13.18;;
59504;SDS011;45321;53.200;5.814;2022-10-31T02:05:36;18.67;;;13.27;;
59504;SDS011;45321;53.200;5.814;2022-10-31T02:08:12;20.38;;;13.02;;
59504;SDS011;45321;53.200;5.814;2022-10-31T02:10:43;18.63;;;12.65;;
59504;SDS011;45321;53.200;5.814;2022-10-31T02:13:09;19.30;;;13.48;;
59504;SDS011;45321;53.200;5.814;2022-10-31T02:15:38;17.65;;;13.45;;
59504;SDS011;45321;53.200;5.814;2022-10-31T02:18:05;16.67;;;12.77;;
59504;SDS011;45321;53.200;5.814;2022-10-31T02:20:32;20.15;;;12.80;;
59504;SDS011;45321;53.200;5.814;2022-10-31T02:29:14;17.60;;;12.07;;
59504;SDS011;45321;53.200;5.814;2022-10-31T02:34:45;13.35;;;10.95;;
59504;SDS011;45321;53.200;5.814;2022-10-31T02:37:30;14.38;;;11.23;;
59504;SDS011;45321;53.200;5.814;2022-10-31T02:40:12;15.82;;;10.43;;
59504;SDS011;45321;53.200;5.814;2022-10-31T02:45:19;12.80;;;10.85;;
59504;SDS011;45321;53.200;5.814;2022-10-31T02:47:53;15.77;;;10.50;;
59504;SDS011;45321;53.200;5.814;2022-10-31T02:50:26;16.08;;;11.30;;
59504;SDS011;45321;53.200;5.814;2022-10-31T02:52:54;13.63;;;10.98;;
59504;SDS011;45321;53.200;5.814;2022-10-31T02:57:54;14.40;;;10.65;;
59504;SDS011;45321;53.200;5.814;2022-10-31T03:03:50;13.48;;;11.02;;
59504;SDS011;45321;53.200;5.814;2022-10-31T03:09:11;15.18;;;11.07;;
59504;SDS011;45321;53.200;5.814;2022-10-31T03:12:22;13.50;;;10.68;;
59504;SDS011;45321;53.200;5.814;2022-10-31T03:17:47;13.65;;;10.45;;
59504;SDS011;45321;53.200;5.814;2022-10-31T03:20:15;15.68;;;11.18;;
59504;SDS011;45321;53.200;5.814;2022-10-31T03:22:47;12.30;;;10.85;;
59504;SDS011;45321;53.200;5.814;2022-10-31T03:25:13;14.07;;;10.30;;
59504;SDS011;45321;53.200;5.814;2022-10-31T03:27:39;16.88;;;11.30;;
59504;SDS011;45321;53.200;5.814;2022-10-31T03:30:07;13.10;;;10.00;;
59504;SDS011;45321;53.200;5.814;2022-10-31T03:32:38;14.25;;;10.93;;
59504;SDS011;45321;53.200;5.814;2022-10-31T03:35:08;13.10;;;10.07;;
59504;SDS011;45321;53.200;5.814;2022-10-31T03:37:37;14.73;;;10.88;;
59504;SDS011;45321;53.200;5.814;2022-10-31T03:40:06;14.25;;;11.25;;
59504;SDS011;45321;53.200;5.814;2022-10-31T03:42:34;11.90;;;10.02;;
59504;SDS011;45321;53.200;5.814;2022-10-31T03:45:10;13.75;;;11.25;;
59504;SDS011;45321;53.200;5.814;2022-10-31T03:47:39;14.75;;;10.90;;
59504;SDS011;45321;53.200;5.814;2022-10-31T03:50:08;13.48;;;10.85;;
59504;SDS011;45321;53.200;5.814;2022-10-31T03:55:25;16.98;;;10.95;;
59504;SDS011;45321;53.200;5.814;2022-10-31T04:00:27;16.83;;;11.50;;
59504;SDS011;45321;53.200;5.814;2022-10-31T04:02:59;15.48;;;10.70;;
59504;SDS011;45321;53.200;5.814;2022-10-31T04:05:35;13.43;;;10.35;;
59504;SDS011;45321;53.200;5.814;2022-10-31T04:08:04;14.10;;;10.40;;
59504;SDS011;45321;53.200;5.814;2022-10-31T04:10:33;15.35;;;10.90;;
59504;SDS011;45321;53.200;5.814;2022-10-31T04:13:06;14.23;;;10.48;;
59504;SDS011;45321;53.200;5.814;2022-10-31T04:15:34;16.05;;;11.30;;
59504;SDS011;45321;53.200;5.814;2022-10-31T04:18:03;14.98;;;10.88;;
59504;SDS011;45321;53.200;5.814;2022-10-31T04:20:31;12.95;;;10.65;;
59504;SDS011;45321;53.200;5.814;2022-10-31T04:23:04;12.32;;;10.70;;
59504;SDS011;45321;53.200;5.814;2022-10-31T04:25:30;16.10;;;10.88;;
59504;SDS011;45321;53.200;5.814;2022-10-31T04:27:56;15.35;;;11.88;;
59504;SDS011;45321;53.200;5.814;2022-10-31T04:30:22;15.48;;;11.32;;
59504;SDS011;45321;53.200;5.814;2022-10-31T04:32:47;14.10;;;11.32;;
59504;SDS011;45321;53.200;5.814;2022-10-31T04:35:13;17.27;;;11.70;;
59504;SDS011;45321;53.200;5.814;2022-10-31T04:37:39;17.65;;;11.95;;
59504;SDS011;45321;53.200;5.814;2022-10-31T04:40:05;15.57;;;11.70;;
59504;SDS011;45321;53.200;5.814;2022-10-31T04:42:31;14.63;;;10.85;;
59504;SDS011;45321;53.200;5.814;2022-10-31T04:44:57;14.70;;;11.05;;
59504;SDS011;45321;53.200;5.814;2022-10-31T04:47:23;15.95;;;12.02;;
59504;SDS011;45321;53.200;5.814;2022-10-31T04:49:48;14.50;;;11.77;;
59504;SDS011;45321;53.200;5.814;2022-10-31T04:52:14;16.90;;;11.65;;
59504;SDS011;45321;53.200;5.814;2022-10-31T04:54:40;13.70;;;11.18;;
59504;SDS011;45321;53.200;5.814;2022-10-31T04:57:05;15.40;;;11.32;;
59504;SDS011;45321;53.200;5.814;2022-10-31T04:59:31;13.48;;;11.55;;
59504;SDS011;45321;53.200;5.814;2022-10-31T05:01:57;16.00;;;11.15;;
59504;SDS011;45321;53.200;5.814;2022-10-31T05:04:22;13.65;;;11.55;;
59504;SDS011;45321;53.200;5.814;2022-10-31T05:06:48;14.15;;;11.70;;
59504;SDS011;45321;53.200;5.814;2022-10-31T05:09:17;14.43;;;12.73;;
59504;SDS011;45321;53.200;5.814;2022-10-31T05:11:43;16.85;;;12.43;;
59504;SDS011;45321;53.200;5.814;2022-10-31T05:14:09;19.98;;;13.18;;
59504;SDS011;45321;53.200;5.814;2022-10-31T05:16:34;16.70;;;12.10;;
59504;SDS011;45321;53.200;5.814;2022-10-31T05:19:00;14.65;;;13.02;;
59504;SDS011;45321;53.200;5.814;2022-10-31T05:21:26;17.85;;;11.90;;
59504;SDS011;45321;53.200;5.814;2022-10-31T05:23:51;15.13;;;12.32;;
59504;SDS011;45321;53.200;5.814;2022-10-31T05:26:17;13.90;;;12.00;;
59504;SDS011;45321;53.200;5.814;2022-10-31T05:28:43;17.27;;;13.18;;
59504;SDS011;45321;53.200;5.814;2022-10-31T05:31:09;15.65;;;12.88;;
59504;SDS011;45321;53.200;5.814;2022-10-31T05:33:34;15.48;;;12.43;;
59504;SDS011;45321;53.200;5.814;2022-10-31T05:36:00;16.58;;;12.88;;
59504;SDS011;45321;53.200;5.814;2022-10-31T05:38:26;16.15;;;12.32;;
59504;SDS011;45321;53.200;5.814;2022-10-31T05:40:54;17.42;;;13.25;;
59504;SDS011;45321;53.200;5.814;2022-10-31T05:43:22;15.23;;;12.85;;
59504;SDS011;45321;53.200;5.814;2022-10-31T05:45:51;17.83;;;13.88;;
59504;SDS011;45321;53.200;5.814;2022-10-31T05:48:18;19.02;;;13.05;;
59504;SDS011;45321;53.200;5.814;2022-10-31T05:50:46;16.88;;;13.88;;
59504;SDS011;45321;53.200;5.814;2022-10-31T05:53:12;17.10;;;14.15;;
59504;SDS011;45321;53.200;5.814;2022-10-31T05:55:38;17.63;;;14.05;;
59504;SDS011;45321;53.200;5.814;2022-10-31T05:58:05;16.50;;;13.77;;
59504;SDS011;45321;53.200;5.814;2022-10-31T06:00:31;17.05;;;14.70;;
59504;SDS011;45321;53.200;5.814;2022-10-31T06:03:04;14.52;;;12.68;;
59504;SDS011;45321;53.200;5.814;2022-10-31T06:05:32;20.95;;;16.92;;
59504;SDS011;45321;53.200;5.814;2022-10-31T06:07:58;22.42;;;17.85;;
59504;SDS011;45321;53.200;5.814;2022-10-31T06:10:24;21.88;;;16.15;;
59504;SDS011;45321;53.200;5.814;2022-10-31T06:12:51;18.75;;;14.35;;
59504;SDS011;45321;53.200;5.814;2022-10-31T06:15:17;19.65;;;15.13;;
59504;SDS011;45321;53.200;5.814;2022-10-31T06:17:43;18.85;;;14.25;;
59504;SDS011;45321;53.200;5.814;2022-10-31T06:20:09;18.25;;;15.73;;
59504;SDS011;45321;53.200;5.814;2022-10-31T06:22:35;25.73;;;19.95;;
59504;SDS011;45321;53.200;5.814;2022-10-31T06:25:01;19.98;;;17.40;;
59504;SDS011;45321;53.200;5.814;2022-10-31T06:27:26;19.20;;;16.27;;
59504;SDS011;45321;53.200;5.814;2022-10-31T06:29:52;20.00;;;15.48;;
59504;SDS011;45321;53.200;5.814;2022-10-31T06:32:18;18.33;;;14.55;;
59504;SDS011;45321;53.200;5.814;2022-10-31T06:34:44;16.85;;;14.32;;
59504;SDS011;45321;53.200;5.814;2022-10-31T06:37:13;17.75;;;14.27;;
59504;SDS011;45321;53.200;5.814;2022-10-31T06:39:39;19.40;;;13.82;;
59504;SDS011;45321;53.200;5.814;2022-10-31T06:42:05;17.52;;;14.23;;
59504;SDS011;45321;53.200;5.814;2022-10-31T06:44:31;19.88;;;15.73;;
59504;SDS011;45321;53.200;5.814;2022-10-31T06:46:57;18.60;;;15.05;;
59504;SDS011;45321;53.200;5.814;2022-10-31T06:49:23;17.63;;;14.02;;
59504;SDS011;45321;53.200;5.814;2022-10-31T06:51:51;17.83;;;14.50;;
59504;SDS011;45321;53.200;5.814;2022-10-31T06:54:17;15.70;;;13.70;;
59504;SDS011;45321;53.200;5.814;2022-10-31T06:56:45;17.90;;;13.95;;
59504;SDS011;45321;53.200;5.814;2022-10-31T06:59:12;17.35;;;13.88;;
59504;SDS011;45321;53.200;5.814;2022-10-31T07:01:37;18.17;;;13.95;;
59504;SDS011;45321;53.200;5.814;2022-10-31T07:04:03;16.73;;;13.20;;
59504;SDS011;45321;53.200;5.814;2022-10-31T07:06:29;19.60;;;14.68;;
59504;SDS011;45321;53.200;5.814;2022-10-31T07:08:54;14.93;;;13.15;;
59504;SDS011;45321;53.200;5.814;2022-10-31T07:11:20;18.92;;;14.65;;
59504;SDS011;45321;53.200;5.814;2022-10-31T07:13:46;17.98;;;14.35;;
59504;SDS011;45321;53.200;5.814;2022-10-31T07:16:12;16.08;;;14.40;;
59504;SDS011;45321;53.200;5.814;2022-10-31T07:18:38;18.88;;;15.05;;
59504;SDS011;45321;53.200;5.814;2022-10-31T07:21:04;18.60;;;15.25;;
59504;SDS011;45321;53.200;5.814;2022-10-31T07:23:30;17.92;;;14.95;;
59504;SDS011;45321;53.200;5.814;2022-10-31T07:25:57;15.90;;;14.10;;
59504;SDS011;45321;53.200;5.814;2022-10-31T07:28:24;16.73;;;14.98;;
59504;SDS011;45321;53.200;5.814;2022-10-31T07:30:54;22.15;;;16.55;;
59504;SDS011;45321;53.200;5.814;2022-10-31T07:33:23;17.73;;;14.88;;
59504;SDS011;45321;53.200;5.814;2022-10-31T07:35:53;18.23;;;15.48;;
59504;SDS011;45321;53.200;5.814;2022-10-31T07:38:18;20.08;;;16.42;;
59504;SDS011;45321;53.200;5.814;2022-10-31T07:40:48;20.80;;;16.30;;
59504;SDS011;45321;53.200;5.814;2022-10-31T07:43:20;23.77;;;17.52;;
59504;SDS011;45321;53.200;5.814;2022-10-31T07:45:50;22.00;;;16.83;;
59504;SDS011;45321;53.200;5.814;2022-10-31T07:48:17;21.13;;;15.93;;
59504;SDS011;45321;53.200;5.814;2022-10-31T07:50:42;21.27;;;16.38;;
59504;SDS011;45321;53.200;5.814;2022-10-31T07:53:10;20.27;;;16.50;;
59504;SDS011;45321;53.200;5.814;2022-10-31T07:55:36;21.98;;;16.17;;
59504;SDS011;45321;53.200;5.814;2022-10-31T07:58:03;19.45;;;16.30;;
59504;SDS011;45321;53.200;5.814;2022-10-31T08:00:31;22.05;;;16.70;;
59504;SDS011;45321;53.200;5.814;2022-10-31T08:03:06;24.75;;;16.50;;
59504;SDS011;45321;53.200;5.814;2022-10-31T08:05:33;22.50;;;16.63;;
59504;SDS011;45321;53.200;5.814;2022-10-31T08:07:59;20.70;;;16.40;;
59504;SDS011;45321;53.200;5.814;2022-10-31T08:10:25;20.38;;;16.33;;
59504;SDS011;45321;53.200;5.814;2022-10-31T08:12:59;21.98;;;15.65;;
59504;SDS011;45321;53.200;5.814;2022-10-31T08:15:29;21.02;;;16.38;;
59504;SDS011;45321;53.200;5.814;2022-10-31T08:17:55;19.95;;;16.45;;
59504;SDS011;45321;53.200;5.814;2022-10-31T08:20:21;20.38;;;15.98;;
59504;SDS011;45321;53.200;5.814;2022-10-31T08:22:57;20.15;;;16.02;;
59504;SDS011;45321;53.200;5.814;2022-10-31T08:25:25;21.35;;;16.40;;
59504;SDS011;45321;53.200;5.814;2022-10-31T08:27:52;25.02;;;17.33;;
59504;SDS011;45321;53.200;5.814;2022-10-31T08:30:19;19.63;;;15.68;;
59504;SDS011;45321;53.200;5.814;2022-10-31T08:32:46;21.70;;;16.63;;
59504;SDS011;45321;53.200;5.814;2022-10-31T08:35:12;19.50;;;15.27;;
59504;SDS011;45321;53.200;5.814;2022-10-31T08:37:38;21.63;;;16.75;;
59504;SDS011;45321;53.200;5.814;2022-10-31T08:40:04;21.60;;;15.95;;
59504;SDS011;45321;53.200;5.814;2022-10-31T08:42:31;17.88;;;15.93;;
59504;SDS011;45321;53.200;5.814;2022-10-31T08:44:57;24.38;;;17.45;;
59504;SDS011;45321;53.200;5.814;2022-10-31T08:47:23;19.63;;;15.32;;
59504;SDS011;45321;53.200;5.814;2022-10-31T08:49:49;18.00;;;14.82;;
59504;SDS011;45321;53.200;5.814;2022-10-31T08:52:14;20.77;;;14.77;;
59504;SDS011;45321;53.200;5.814;2022-10-31T08:54:41;21.88;;;15.77;;
59504;SDS011;45321;53.200;5.814;2022-10-31T08:57:06;18.75;;;14.60;;
59504;SDS011;45321;53.200;5.814;2022-10-31T08:59:32;21.65;;;15.10;;
59504;SDS011;45321;53.200;5.814;2022-10-31T09:01:58;21.17;;;16.08;;
59504;SDS011;45321;53.200;5.814;2022-10-31T09:04:24;18.08;;;14.93;;
59504;SDS011;45321;53.200;5.814;2022-10-31T09:06:49;19.67;;;14.80;;
59504;SDS011;45321;53.200;5.814;2022-10-31T09:09:15;16.40;;;14.02;;
59504;SDS011;45321;53.200;5.814;2022-10-31T09:11:41;19.13;;;13.63;;
59504;SDS011;45321;53.200;5.814;2022-10-31T09:14:09;19.33;;;14.50;;
59504;SDS011;45321;53.200;5.814;2022-10-31T09:16:35;17.88;;;14.45;;
59504;SDS011;45321;53.200;5.814;2022-10-31T09:19:01;16.83;;;12.95;;
59504;SDS011;45321;53.200;5.814;2022-10-31T09:21:26;15.05;;;13.25;;
59504;SDS011;45321;53.200;5.814;2022-10-31T09:23:52;17.35;;;13.75;;
59504;SDS011;45321;53.200;5.814;2022-10-31T09:26:18;17.17;;;14.00;;
59504;SDS011;45321;53.200;5.814;2022-10-31T09:28:47;18.63;;;14.77;;
59504;SDS011;45321;53.200;5.814;2022-10-31T09:31:13;15.63;;;13.73;;
59504;SDS011;45321;53.200;5.814;2022-10-31T09:33:39;15.10;;;13.57;;
59504;SDS011;45321;53.200;5.814;2022-10-31T09:36:05;17.63;;;14.57;;
59504;SDS011;45321;53.200;5.814;2022-10-31T09:38:33;19.17;;;15.05;;
59504;SDS011;45321;53.200;5.814;2022-10-31T09:43:55;20.33;;;15.30;;
59504;SDS011;45321;53.200;5.814;2022-10-31T09:46:38;18.70;;;14.82;;
59504;SDS011;45321;53.200;5.814;2022-10-31T09:49:24;16.63;;;14.20;;
59504;SDS011;45321;53.200;5.814;2022-10-31T09:57:28;16.90;;;14.25;;
59504;SDS011;45321;53.200;5.814;2022-10-31T10:00:01;19.50;;;15.07;;
59504;SDS011;45321;53.200;5.814;2022-10-31T10:05:02;18.40;;;15.13;;
59504;SDS011;45321;53.200;5.814;2022-10-31T10:10:20;17.17;;;14.85;;
59504;SDS011;45321;53.200;5.814;2022-10-31T10:26:44;20.48;;;14.88;;
59504;SDS011;45321;53.200;5.814;2022-10-31T10:29:34;18.65;;;14.93;;
59504;SDS011;45321;53.200;5.814;2022-10-31T10:32:10;18.75;;;15.00;;
59504;SDS011;45321;53.200;5.814;2022-10-31T10:34:47;17.85;;;14.77;;
59504;SDS011;45321;53.200;5.814;2022-10-31T10:37:56;17.25;;;14.10;;
59504;SDS011;45321;53.200;5.814;2022-10-31T10:40:34;17.17;;;13.40;;
59504;SDS011;45321;53.200;5.814;2022-10-31T10:51:44;17.63;;;12.50;;
59504;SDS011;45321;53.200;5.814;2022-10-31T10:59:43;15.98;;;11.05;;
59504;SDS011;45321;53.200;5.814;2022-10-31T11:02:16;20.27;;;11.23;;
59504;SDS011;45321;53.200;5.814;2022-10-31T11:04:52;10.63;;;9.23;;
59504;SDS011;45321;53.200;5.814;2022-10-31T11:07:20;13.35;;;8.38;;
59504;SDS011;45321;53.200;5.814;2022-10-31T11:09:46;13.75;;;9.48;;
59504;SDS011;45321;53.200;5.814;2022-10-31T11:12:17;11.35;;;8.93;;
59504;SDS011;45321;53.200;5.814;2022-10-31T11:14:51;11.97;;;7.87;;
59504;SDS011;45321;53.200;5.814;2022-10-31T11:17:28;10.20;;;7.60;;
59504;SDS011;45321;53.200;5.814;2022-10-31T11:20:00;9.52;;;7.22;;
59504;SDS011;45321;53.200;5.814;2022-10-31T11:22:28;9.13;;;7.38;;
59504;SDS011;45321;53.200;5.814;2022-10-31T11:24:54;12.18;;;8.73;;
59504;SDS011;45321;53.200;5.814;2022-10-31T11:27:20;11.68;;;8.18;;
59504;SDS011;45321;53.200;5.814;2022-10-31T11:29:49;10.70;;;8.55;;
59504;SDS011;45321;53.200;5.814;2022-10-31T11:32:18;10.15;;;7.60;;
59504;SDS011;45321;53.200;5.814;2022-10-31T11:34:59;10.40;;;7.82;;
59504;SDS011;45321;53.200;5.814;2022-10-31T11:37:29;12.07;;;8.05;;
59504;SDS011;45321;53.200;5.814;2022-10-31T11:40:02;10.75;;;8.20;;
59504;SDS011;45321;53.200;5.814;2022-10-31T11:42:34;10.05;;;8.15;;
59504;SDS011;45321;53.200;5.814;2022-10-31T11:45:06;9.82;;;7.38;;
59504;SDS011;45321;53.200;5.814;2022-10-31T11:47:40;10.15;;;7.40;;
59504;SDS011;45321;53.200;5.814;2022-10-31T11:50:09;10.40;;;8.02;;
59504;SDS011;45321;53.200;5.814;2022-10-31T11:52:44;9.43;;;7.35;;
59504;SDS011;45321;53.200;5.814;2022-10-31T11:57:42;9.75;;;7.75;;
59504;SDS011;45321;53.200;5.814;2022-10-31T12:03:15;12.82;;;8.38;;
59504;SDS011;45321;53.200;5.814;2022-10-31T12:08:31;17.67;;;10.23;;
59504;SDS011;45321;53.200;5.814;2022-10-31T12:16:46;12.00;;;9.73;;
59504;SDS011;45321;53.200;5.814;2022-10-31T12:19:24;16.50;;;11.38;;
59504;SDS011;45321;53.200;5.814;2022-10-31T12:24:41;16.45;;;11.50;;
59504;SDS011;45321;53.200;5.814;2022-10-31T12:35:51;18.80;;;12.07;;
59504;SDS011;45321;53.200;5.814;2022-10-31T12:41:33;14.30;;;11.02;;
59504;SDS011;45321;53.200;5.814;2022-10-31T12:44:12;13.98;;;10.50;;
59504;SDS011;45321;53.200;5.814;2022-10-31T12:53:00;14.82;;;10.40;;
59504;SDS011;45321;53.200;5.814;2022-10-31T12:58:21;17.27;;;11.00;;
59504;SDS011;45321;53.200;5.814;2022-10-31T13:01:13;15.73;;;10.82;;
59504;SDS011;45321;53.200;5.814;2022-10-31T13:06:36;12.70;;;7.90;;
59504;SDS011;45321;53.200;5.814;2022-10-31T13:09:10;13.93;;;8.65;;
59504;SDS011;45321;53.200;5.814;2022-10-31T13:11:45;12.45;;;7.75;;
59504;SDS011;45321;53.200;5.814;2022-10-31T13:16:43;10.82;;;7.32;;
59504;SDS011;45321;53.200;5.814;2022-10-31T13:22:04;9.30;;;6.20;;
59504;SDS011;45321;53.200;5.814;2022-10-31T13:24:36;9.77;;;5.43;;
59504;SDS011;45321;53.200;5.814;2022-10-31T13:27:17;12.68;;;5.25;;
59504;SDS011;45321;53.200;5.814;2022-10-31T13:32:39;11.05;;;4.05;;
59504;SDS011;45321;53.200;5.814;2022-10-31T13:35:12;7.60;;;3.60;;
59504;SDS011;45321;53.200;5.814;2022-10-31T13:41:05;9.98;;;4.15;;
59504;SDS011;45321;53.200;5.814;2022-10-31T13:46:45;9.55;;;3.45;;
59504;SDS011;45321;53.200;5.814;2022-10-31T13:51:51;11.50;;;3.70;;
59504;SDS011;45321;53.200;5.814;2022-10-31T13:54:23;8.88;;;3.97;;
59504;SDS011;45321;53.200;5.814;2022-10-31T13:57:00;8.45;;;4.13;;
59504;SDS011;45321;53.200;5.814;2022-10-31T13:59:29;10.23;;;4.20;;
59504;SDS011;45321;53.200;5.814;2022-10-31T14:02:13;8.32;;;3.47;;
59504;SDS011;45321;53.200;5.814;2022-10-31T14:04:51;9.13;;;3.80;;
59504;SDS011;45321;53.200;5.814;2022-10-31T14:07:23;10.30;;;4.70;;
59504;SDS011;45321;53.200;5.814;2022-10-31T14:12:38;8.75;;;4.35;;
59504;SDS011;45321;53.200;5.814;2022-10-31T14:20:33;7.60;;;4.95;;
59504;SDS011;45321;53.200;5.814;2022-10-31T14:31:53;11.75;;;5.85;;
59504;SDS011;45321;53.200;5.814;2022-10-31T14:34:29;11.32;;;6.20;;
59504;SDS011;45321;53.200;5.814;2022-10-31T14:37:21;11.77;;;6.20;;
59504;SDS011;45321;53.200;5.814;2022-10-31T14:46:07;9.88;;;4.95;;
59504;SDS011;45321;53.200;5.814;2022-10-31T14:51:37;11.75;;;5.05;;
59504;SDS011;45321;53.200;5.814;2022-10-31T14:54:06;7.30;;;4.43;;
59504;SDS011;45321;53.200;5.814;2022-10-31T14:56:37;9.77;;;5.10;;
59504;SDS011;45321;53.200;5.814;2022-10-31T14:59:12;8.90;;;4.00;;
59504;SDS011;45321;53.200;5.814;2022-10-31T15:04:15;10.65;;;4.15;;
59504;SDS011;45321;53.200;5.814;2022-10-31T15:06:48;11.13;;;4.22;;
59504;SDS011;45321;53.200;5.814;2022-10-31T15:09:24;13.48;;;4.25;;
59504;SDS011;45321;53.200;5.814;2022-10-31T15:11:50;11.93;;;5.43;;
59504;SDS011;45321;53.200;5.814;2022-10-31T15:14:21;9.88;;;4.93;;
59504;SDS011;45321;53.200;5.814;2022-10-31T15:16:47;10.93;;;5.00;;
59504;SDS011;45321;53.200;5.814;2022-10-31T15:19:19;11.57;;;6.00;;
59504;SDS011;45321;53.200;5.814;2022-10-31T15:21:49;12.15;;;5.03;;
59504;SDS011;45321;53.200;5.814;2022-10-31T15:24:16;10.02;;;4.55;;
59504;SDS011;45321;53.200;5.814;2022-10-31T15:26:52;11.75;;;4.65;;
59504;SDS011;45321;53.200;5.814;2022-10-31T15:29:23;8.95;;;3.97;;
59504;SDS011;45321;53.200;5.814;2022-10-31T15:31:54;7.38;;;3.75;;
59504;SDS011;45321;53.200;5.814;2022-10-31T15:34:26;8.68;;;3.65;;
59504;SDS011;45321;53.200;5.814;2022-10-31T15:37:03;8.55;;;4.57;;
59504;SDS011;45321;53.200;5.814;2022-10-31T15:39:30;8.57;;;4.07;;
59504;SDS011;45321;53.200;5.814;2022-10-31T15:41:57;11.73;;;4.07;;
59504;SDS011;45321;53.200;5.814;2022-10-31T15:47:01;11.75;;;4.07;;
59504;SDS011;45321;53.200;5.814;2022-10-31T15:49:48;12.73;;;3.47;;
59504;SDS011;45321;53.200;5.814;2022-10-31T15:52:34;11.68;;;4.22;;
59504;SDS011;45321;53.200;5.814;2022-10-31T15:55:26;10.20;;;3.70;;
59504;SDS011;45321;53.200;5.814;2022-10-31T15:58:00;10.25;;;4.22;;
59504;SDS011;45321;53.200;5.814;2022-10-31T16:05:50;9.93;;;4.88;;
59504;SDS011;45321;53.200;5.814;2022-10-31T16:13:33;13.02;;;7.25;;
59504;SDS011;45321;53.200;5.814;2022-10-31T16:16:12;18.58;;;7.68;;
59504;SDS011;45321;53.200;5.814;2022-10-31T16:18:40;15.33;;;6.67;;
59504;SDS011;45321;53.200;5.814;2022-10-31T16:21:06;12.73;;;7.05;;
59504;SDS011;45321;53.200;5.814;2022-10-31T16:23:33;14.32;;;8.55;;
59504;SDS011;45321;53.200;5.814;2022-10-31T16:26:04;17.70;;;8.88;;
59504;SDS011;45321;53.200;5.814;2022-10-31T16:28:49;16.65;;;7.38;;
59504;SDS011;45321;53.200;5.814;2022-10-31T16:31:30;15.55;;;5.40;;
59504;SDS011;45321;53.200;5.814;2022-10-31T16:34:03;12.18;;;5.55;;
59504;SDS011;45321;53.200;5.814;2022-10-31T16:36:32;17.60;;;7.97;;
59504;SDS011;45321;53.200;5.814;2022-10-31T16:39:02;12.35;;;5.70;;
59504;SDS011;45321;53.200;5.814;2022-10-31T16:41:28;12.43;;;5.50;;
59504;SDS011;45321;53.200;5.814;2022-10-31T16:43:54;13.35;;;6.18;;
59504;SDS011;45321;53.200;5.814;2022-10-31T16:46:26;14.23;;;7.25;;
59504;SDS011;45321;53.200;5.814;2022-10-31T16:48:53;13.55;;;6.47;;
59504;SDS011;45321;53.200;5.814;2022-10-31T16:51:19;15.45;;;6.82;;
59504;SDS011;45321;53.200;5.814;2022-10-31T16:53:45;13.40;;;6.30;;
59504;SDS011;45321;53.200;5.814;2022-10-31T16:56:18;14.10;;;7.07;;
59504;SDS011;45321;53.200;5.814;2022-10-31T16:58:52;11.23;;;6.70;;
59504;SDS011;45321;53.200;5.814;2022-10-31T17:01:18;12.93;;;7.38;;
59504;SDS011;45321;53.200;5.814;2022-10-31T17:03:46;14.48;;;7.88;;
59504;SDS011;45321;53.200;5.814;2022-10-31T17:06:12;12.85;;;6.78;;
59504;SDS011;45321;53.200;5.814;2022-10-31T17:08:39;14.68;;;7.28;;
59504;SDS011;45321;53.200;5.814;2022-10-31T17:11:08;15.02;;;7.35;;
59504;SDS011;45321;53.200;5.814;2022-10-31T17:13:43;12.63;;;6.50;;
59504;SDS011;45321;53.200;5.814;2022-10-31T17:16:09;14.82;;;7.15;;
59504;SDS011;45321;53.200;5.814;2022-10-31T17:18:39;11.88;;;6.97;;
59504;SDS011;45321;53.200;5.814;2022-10-31T17:21:05;17.25;;;7.70;;
59504;SDS011;45321;53.200;5.814;2022-10-31T17:23:31;13.75;;;7.82;;
59504;SDS011;45321;53.200;5.814;2022-10-31T17:25:57;15.35;;;7.57;;
59504;SDS011;45321;53.200;5.814;2022-10-31T17:28:23;18.50;;;7.38;;